createdAt,value
2022-08-05T00:01:35.969Z,66.70
2022-08-05T00:04:16.334Z,65.50
2022-08-05T00:06:44.244Z,66.70
2022-08-05T00:09:16.030Z,67.70
2022-08-05T00:11:49.649Z,68.70
2022-08-05T00:14:27.467Z,70.80
2022-08-05T00:16:57.040Z,71.10
2022-08-05T00:19:33.646Z,69.60
2022-08-05T00:22:11.240Z,70.70
2022-08-05T00:24:42.222Z,69.30
2022-08-05T00:27:14.123Z,69.10
2022-08-05T00:29:44.706Z,70.00
2022-08-05T00:32:15.270Z,71.40
2022-08-05T00:35:04.557Z,70.80
2022-08-05T00:37:35.380Z,72.30
2022-08-05T00:40:27.057Z,71.70
2022-08-05T00:42:57.400Z,70.70
2022-08-05T00:45:37.960Z,70.60
2022-08-05T00:48:08.079Z,70.00
2022-08-05T00:50:37.301Z,71.60
2022-08-05T00:53:09.797Z,75.60
2022-08-05T00:55:54.482Z,77.20
2022-08-05T00:58:22.357Z,74.90
2022-08-05T01:00:55.459Z,72.60
2022-08-05T01:03:24.301Z,72.90
2022-08-05T01:05:59.213Z,72.70
2022-08-05T01:08:41.290Z,73.30
2022-08-05T01:11:22.370Z,72.90
2022-08-05T01:14:02.797Z,72.30
2022-08-05T01:16:32.042Z,74.00
2022-08-05T01:19:03.799Z,72.80
2022-08-05T01:21:50.586Z,73.40
2022-08-05T01:24:27.300Z,72.60
2022-08-05T01:27:19.457Z,74.70
2022-08-05T01:29:53.190Z,74.60
2022-08-05T01:32:23.821Z,74.90
2022-08-05T01:34:57.349Z,76.60
2022-08-05T01:37:30.554Z,76.00
2022-08-05T01:40:00.909Z,74.40
2022-08-05T01:42:29.091Z,74.00
2022-08-05T01:44:59.135Z,74.10
2022-08-05T01:47:38.681Z,74.10
2022-08-05T01:50:09.275Z,75.50
2022-08-05T01:52:44.287Z,76.40
2022-08-05T01:55:13.118Z,78.00
2022-08-05T01:58:11.649Z,79.30
2022-08-05T02:00:32.677Z,77.50
2022-08-05T02:03:03.534Z,78.30
2022-08-05T02:05:35.987Z,82.50
2022-08-05T02:08:04.853Z,83.70
2022-08-05T02:10:35.732Z,85.50
2022-08-05T02:13:15.694Z,86.60
2022-08-05T02:15:47.784Z,84.00
2022-08-05T02:18:33.341Z,83.00
2022-08-05T02:21:05.696Z,82.50
2022-08-05T02:23:35.744Z,79.90
2022-08-05T02:26:04.728Z,80.00
2022-08-05T02:28:38.097Z,79.10
2022-08-05T02:31:14.437Z,80.60
2022-08-05T02:33:46.293Z,79.90
2022-08-05T02:36:18.116Z,79.70
2022-08-05T02:38:52.849Z,79.80
2022-08-05T02:41:22.763Z,83.00
2022-08-05T02:44:02.975Z,86.60
2022-08-05T02:46:53.492Z,88.90
2022-08-05T02:49:36.893Z,89.70
2022-08-05T02:52:06.823Z,89.10
2022-08-05T02:54:37.110Z,87.30
2022-08-05T02:57:10.374Z,90.30
2022-08-05T02:59:54.927Z,90.30
2022-08-05T03:02:27.629Z,90.00
2022-08-05T03:04:55.682Z,89.80
2022-08-05T03:07:56.568Z,88.60
2022-08-05T03:10:13.460Z,86.20
2022-08-05T03:12:41.373Z,83.70
2022-08-05T03:15:12.415Z,82.50
2022-08-05T03:17:44.833Z,82.90
2022-08-05T03:20:13.860Z,85.10
2022-08-05T03:22:44.231Z,86.50
2022-08-05T03:25:32.834Z,84.40
2022-08-05T03:28:06.419Z,83.60
2022-08-05T03:30:36.262Z,90.00
2022-08-05T03:33:07.606Z,91.10
2022-08-05T03:35:41.225Z,89.50
2022-08-05T03:38:09.767Z,92.70
2022-08-05T03:40:41.136Z,90.60
2022-08-05T03:43:32.347Z,88.00
2022-08-05T03:46:01.667Z,87.10
2022-08-05T03:48:35.518Z,85.50
2022-08-05T03:52:37.937Z,84.10
2022-08-05T03:55:51.362Z,88.80
2022-08-05T03:56:47.266Z,91.40
2022-08-05T03:59:20.607Z,90.10
2022-08-05T04:01:50.291Z,89.40
2022-08-05T04:04:21.353Z,90.90
2022-08-05T04:06:51.087Z,90.70
2022-08-05T04:09:26.100Z,90.00
2022-08-05T04:11:56.754Z,87.70
2022-08-05T04:14:30.357Z,87.40
2022-08-05T04:16:59.652Z,88.50
2022-08-05T04:19:29.178Z,90.90
2022-08-05T04:22:08.091Z,90.90
2022-08-05T04:24:44.294Z,91.70
2022-08-05T04:27:13.447Z,90.90
2022-08-05T04:29:41.590Z,91.80
2022-08-05T04:32:10.457Z,91.10
2022-08-05T04:34:43.104Z,90.90
2022-08-05T04:37:11.572Z,91.70
2022-08-05T04:39:40.671Z,91.40
2022-08-05T04:42:09.702Z,90.50
2022-08-05T04:44:37.769Z,90.00
2022-08-05T04:47:08.838Z,90.00
2022-08-05T04:50:02.152Z,89.60
2022-08-05T04:52:28.156Z,93.00
2022-08-05T04:54:57.196Z,92.50
2022-08-05T04:57:29.115Z,91.60
2022-08-05T04:59:58.654Z,90.30
2022-08-05T05:02:36.947Z,89.40
2022-08-05T05:05:16.737Z,90.20
2022-08-05T05:07:56.389Z,87.80
2022-08-05T05:10:29.609Z,87.20
2022-08-05T05:12:57.845Z,87.80
2022-08-05T05:15:56.974Z,87.50
2022-08-05T05:18:14.993Z,86.40
2022-08-05T05:20:58.522Z,85.40
2022-08-05T05:23:26.789Z,84.70
2022-08-05T05:26:07.027Z,84.10
2022-08-05T05:28:42.905Z,86.10
2022-08-05T05:31:13.085Z,86.00
2022-08-05T05:33:58.935Z,84.90
2022-08-05T05:36:29.962Z,85.70
2022-08-05T05:38:58.136Z,85.10
2022-08-05T05:41:40.654Z,84.90
2022-08-05T05:44:35.777Z,84.70
2022-08-05T05:46:58.331Z,84.40
2022-08-05T05:49:31.922Z,86.80
2022-08-05T05:52:06.052Z,86.50
2022-08-05T05:54:50.262Z,87.50
2022-08-05T05:57:19.456Z,86.00
2022-08-05T05:59:47.685Z,86.40
2022-08-05T06:02:16.935Z,89.40
2022-08-05T06:04:47.480Z,90.30
2022-08-05T06:07:22.521Z,88.70
2022-08-05T06:10:10.378Z,84.70
2022-08-05T06:12:42.062Z,85.30
2022-08-05T06:15:23.704Z,87.70
2022-08-05T06:17:54.194Z,90.20
2022-08-05T06:20:23.164Z,91.50
2022-08-05T06:22:52.790Z,90.00
2022-08-05T06:25:59.040Z,86.30
2022-08-05T06:28:20.803Z,90.50
2022-08-05T06:30:49.736Z,90.30
2022-08-05T06:33:19.323Z,89.50
2022-08-05T06:36:07.517Z,89.50
2022-08-05T06:38:37.197Z,90.50
2022-08-05T06:41:05.466Z,92.70
2022-08-05T06:43:51.485Z,92.10
2022-08-05T06:46:23.664Z,91.70
2022-08-05T06:48:58.750Z,90.30
2022-08-05T06:51:29.386Z,91.20
2022-08-05T06:53:59.948Z,90.70
2022-08-05T06:56:27.945Z,90.00
2022-08-05T06:58:55.889Z,90.10
2022-08-05T07:01:27.735Z,89.90
2022-08-05T07:04:00.575Z,88.50
2022-08-05T07:06:28.975Z,87.70
2022-08-05T07:08:59.118Z,90.80
2022-08-05T07:11:31.025Z,91.40
2022-08-05T07:14:29.016Z,92.60
2022-08-05T07:17:56.597Z,91.20
2022-08-05T07:22:36.976Z,83.90
2022-08-05T07:25:22.649Z,81.70
2022-08-05T07:27:57.687Z,78.90
2022-08-05T07:30:32.750Z,77.10
2022-08-05T07:33:01.316Z,75.60
2022-08-05T07:36:01.814Z,74.20
2022-08-05T07:38:32.493Z,73.30
2022-08-05T07:41:35.092Z,72.20
2022-08-05T07:43:53.388Z,71.40
2022-08-05T07:46:26.023Z,70.50
2022-08-05T07:49:02.269Z,70.00
2022-08-05T07:51:37.005Z,69.40
2022-08-05T07:54:06.397Z,68.90
2022-08-05T07:57:00.793Z,68.30
2022-08-05T07:59:37.996Z,67.80
2022-08-05T08:02:10.639Z,67.20
2022-08-05T08:04:45.059Z,66.80
2022-08-05T08:07:13.378Z,66.30
2022-08-05T08:09:41.369Z,66.00
2022-08-05T08:12:19.912Z,65.70
2022-08-05T08:15:02.632Z,65.40
2022-08-05T08:17:31.852Z,65.20
2022-08-05T08:20:22.669Z,64.80
2022-08-05T08:22:52.307Z,64.60
2022-08-05T08:25:26.971Z,64.20
2022-08-05T08:28:17.972Z,64.10
2022-08-05T08:30:49.760Z,63.70
2022-08-05T08:33:19.103Z,63.50
2022-08-05T08:35:52.286Z,63.10
2022-08-05T08:38:36.101Z,62.90
2022-08-05T08:41:06.637Z,62.60
2022-08-05T08:45:21.319Z,62.40
2022-08-05T08:46:24.348Z,62.10
2022-08-05T08:49:08.084Z,61.70
2022-08-05T08:52:05.608Z,61.60
2022-08-05T08:54:28.507Z,61.60
2022-08-05T08:56:56.711Z,61.20
2022-08-05T08:59:27.901Z,61.40
2022-08-05T09:02:06.171Z,61.20
2022-08-05T09:04:58.590Z,61.20
2022-08-05T09:07:29.011Z,61.20
2022-08-05T09:09:57.408Z,61.40
2022-08-05T09:12:27.373Z,61.60
2022-08-05T09:14:59.093Z,61.40
2022-08-05T09:17:40.631Z,61.20
2022-08-05T09:20:11.335Z,60.70
2022-08-05T09:23:07.894Z,60.30
2022-08-05T09:26:02.880Z,60.10
2022-08-05T09:28:32.449Z,59.90
2022-08-05T09:31:22.230Z,59.70
2022-08-05T09:33:54.787Z,59.70
2022-08-05T09:36:27.928Z,60.30
2022-08-05T09:39:02.607Z,59.50
2022-08-05T09:41:32.774Z,59.40
2022-08-05T09:44:06.357Z,59.60
2022-08-05T09:46:35.195Z,59.60
2022-08-05T09:49:19.112Z,59.60
2022-08-05T09:51:49.583Z,59.60
2022-08-05T09:54:28.886Z,59.50
2022-08-05T09:57:01.264Z,59.30
2022-08-05T09:59:35.212Z,59.10
2022-08-05T10:02:04.847Z,58.90
2022-08-05T10:04:38.455Z,58.50
2022-08-05T10:07:20.309Z,58.30
2022-08-05T10:10:13.844Z,58.20
2022-08-05T10:12:49.255Z,58.10
2022-08-05T10:15:23.127Z,58.00
2022-08-05T10:18:11.832Z,58.50
2022-08-05T10:20:44.165Z,57.80
2022-08-05T10:23:34.073Z,57.60
2022-08-05T10:26:05.598Z,57.40
2022-08-05T10:28:36.452Z,57.20
2022-08-05T10:32:50.555Z,56.90
2022-08-05T10:33:54.287Z,56.70
2022-08-05T10:36:26.025Z,56.50
2022-08-05T10:38:57.472Z,56.10
2022-08-05T10:41:46.405Z,55.90
2022-08-05T10:44:18.522Z,55.80
2022-08-05T10:46:50.989Z,55.70
2022-08-05T10:49:27.625Z,55.60
2022-08-05T10:52:05.243Z,55.20
2022-08-05T10:54:56.355Z,55.20
2022-08-05T10:57:31.755Z,55.20
2022-08-05T11:00:17.914Z,55.10
2022-08-05T11:03:24.397Z,54.90
2022-08-05T11:06:04.561Z,54.80
2022-08-05T11:08:37.092Z,54.90
2022-08-05T11:11:44.282Z,54.10
2022-08-05T11:14:49.409Z,53.50
2022-08-05T11:18:00.151Z,53.60
2022-08-05T11:20:41.811Z,53.40
2022-08-05T11:24:05.750Z,53.00
2022-08-05T11:26:28.014Z,53.20
2022-08-05T11:29:02.434Z,53.00
2022-08-05T11:31:57.406Z,53.10
2022-08-05T11:34:37.433Z,52.90
2022-08-05T11:38:14.230Z,52.50
2022-08-05T11:40:00.798Z,52.30
2022-08-05T11:42:31.677Z,52.70
2022-08-05T11:45:03.388Z,52.40
2022-08-05T11:47:49.011Z,52.90
2022-08-05T11:50:18.075Z,52.40
2022-08-05T11:52:49.579Z,52.20
2022-08-05T11:55:19.706Z,52.40
2022-08-05T11:58:10.968Z,52.40
2022-08-05T12:00:38.562Z,52.20
2022-08-05T12:03:28.990Z,48.40
2022-08-05T12:06:01.300Z,46.30
2022-08-05T12:08:32.707Z,45.70
2022-08-05T12:11:05.719Z,46.90
2022-08-05T12:13:48.777Z,46.80
2022-08-05T12:16:19.192Z,46.20
2022-08-05T12:18:48.946Z,46.00
2022-08-05T12:21:23.756Z,45.20
2022-08-05T12:24:04.840Z,46.40
2022-08-05T12:26:35.536Z,42.40
2022-08-05T12:29:04.665Z,39.30
2022-08-05T12:31:47.736Z,38.10
2022-08-05T12:34:20.666Z,39.80
2022-08-05T12:36:49.426Z,38.00
2022-08-05T12:39:17.608Z,38.20
2022-08-05T12:41:47.350Z,36.20
2022-08-05T12:44:32.711Z,37.90
2022-08-05T12:47:02.257Z,39.70
2022-08-05T12:50:04.815Z,41.70
2022-08-05T12:52:32.422Z,42.50
2022-08-05T12:55:03.585Z,43.40
2022-08-05T12:58:48.633Z,42.90
2022-08-05T13:02:02.215Z,39.50
2022-08-05T13:03:15.054Z,37.40
2022-08-05T13:05:43.171Z,35.00
2022-08-05T13:08:11.075Z,36.90
2022-08-05T13:10:46.430Z,38.60
2022-08-05T13:14:06.642Z,38.00
2022-08-05T13:16:15.470Z,38.80
2022-08-05T13:18:52.289Z,36.70
2022-08-05T13:21:23.188Z,36.50
2022-08-05T13:23:56.425Z,36.50
2022-08-05T13:26:30.233Z,36.80
2022-08-05T13:28:59.571Z,37.20
2022-08-05T13:32:03.403Z,37.90
2022-08-05T13:34:21.356Z,38.50
2022-08-05T13:36:53.407Z,38.90
2022-08-05T13:40:12.803Z,39.50
2022-08-05T13:42:14.773Z,40.00
2022-08-05T13:44:45.682Z,41.10
2022-08-05T13:47:34.890Z,41.30
2022-08-05T13:50:04.481Z,41.60
2022-08-05T13:52:35.473Z,41.80
2022-08-05T13:55:07.320Z,42.30
2022-08-05T13:57:51.203Z,42.80
2022-08-05T14:00:27.448Z,42.90
2022-08-05T14:02:56.127Z,42.70
2022-08-05T14:05:48.528Z,43.10
2022-08-05T14:08:21.453Z,43.00
2022-08-05T14:10:59.779Z,43.10
2022-08-05T14:13:43.425Z,43.30
2022-08-05T14:16:19.301Z,43.40
2022-08-05T14:18:47.086Z,43.50
2022-08-05T14:22:07.481Z,43.50
2022-08-05T14:24:03.093Z,43.80
2022-08-05T14:26:36.892Z,43.80
2022-08-05T14:29:15.870Z,44.00
2022-08-05T14:32:02.749Z,44.20
2022-08-05T14:34:35.685Z,44.30
2022-08-05T14:37:04.084Z,44.40
2022-08-05T14:39:49.335Z,44.50
2022-08-05T14:42:21.752Z,44.50
2022-08-05T14:44:50.071Z,44.80
2022-08-05T14:47:58.269Z,44.90
2022-08-05T14:50:17.836Z,44.90
2022-08-05T14:52:53.650Z,45.00
2022-08-05T14:55:38.415Z,45.10
2022-08-05T14:58:12.012Z,45.10
2022-08-05T15:00:59.760Z,45.30
2022-08-05T15:03:33.849Z,45.40
2022-08-05T15:06:15.335Z,45.30
2022-08-05T15:08:59.752Z,45.20
2022-08-05T15:11:53.105Z,45.20
2022-08-05T15:14:34.658Z,45.30
2022-08-05T15:17:09.752Z,45.60
2022-08-05T15:19:57.959Z,45.70
2022-08-05T15:22:26.988Z,45.60
2022-08-05T15:24:55.440Z,45.80
2022-08-05T15:27:25.800Z,45.90
2022-08-05T15:29:56.577Z,45.70
2022-08-05T15:32:27.516Z,45.80
2022-08-05T15:34:57.905Z,45.90
2022-08-05T15:38:33.318Z,46.10
2022-08-05T15:40:59.392Z,46.20
2022-08-05T15:43:10.985Z,46.20
2022-08-05T15:45:47.711Z,46.40
2022-08-05T15:48:28.814Z,46.40
2022-08-05T15:50:58.287Z,46.50
2022-08-05T15:53:38.374Z,46.50
2022-08-05T15:56:18.451Z,46.40
2022-08-05T15:58:46.598Z,46.50
2022-08-05T16:01:17.100Z,46.30
2022-08-05T16:03:48.379Z,46.40
2022-08-05T16:06:22.756Z,46.60
2022-08-05T16:08:53.579Z,46.70
2022-08-05T16:11:42.762Z,46.60
2022-08-05T16:14:17.183Z,46.60
2022-08-05T16:16:46.023Z,46.60
2022-08-05T16:19:18.932Z,46.50
2022-08-05T16:22:00.080Z,46.50
2022-08-05T16:24:40.047Z,46.80
2022-08-05T16:27:09.999Z,46.80
2022-08-05T16:29:50.023Z,46.80
2022-08-05T16:32:23.485Z,46.90
2022-08-05T16:34:57.048Z,46.90
2022-08-05T16:38:02.322Z,46.80
2022-08-05T16:40:26.694Z,47.00
2022-08-05T16:42:57.430Z,47.00
2022-08-05T16:46:03.897Z,47.10
2022-08-05T16:48:25.534Z,47.20
2022-08-05T16:50:54.309Z,47.30
2022-08-05T16:53:32.380Z,47.10
2022-08-05T16:56:00.769Z,47.20
2022-08-05T16:58:29.891Z,47.30
2022-08-05T17:00:57.925Z,47.30
2022-08-05T17:03:27.180Z,47.30
2022-08-05T17:05:59.459Z,47.40
2022-08-05T17:08:35.757Z,47.50
2022-08-05T17:11:17.447Z,47.40
2022-08-05T17:13:45.570Z,47.50
2022-08-05T17:16:29.750Z,47.50
2022-08-05T17:19:01.000Z,47.40
2022-08-05T17:21:35.533Z,47.40
2022-08-05T17:24:19.615Z,47.40
2022-08-05T17:26:55.374Z,47.50
2022-08-05T17:29:39.936Z,47.60
2022-08-05T17:32:11.396Z,47.50
2022-08-05T17:34:44.233Z,47.50
2022-08-05T17:37:32.189Z,47.60
2022-08-05T17:40:01.068Z,47.60
2022-08-05T17:42:32.006Z,47.70
2022-08-05T17:45:17.969Z,47.60
2022-08-05T17:47:53.527Z,47.60
2022-08-05T17:50:28.517Z,47.70
2022-08-05T17:52:59.397Z,47.70
2022-08-05T17:55:37.235Z,47.70
2022-08-05T17:58:09.283Z,47.70
2022-08-05T18:00:40.738Z,47.70
2022-08-05T18:03:12.958Z,47.70
2022-08-05T18:05:56.552Z,47.70
2022-08-05T18:08:29.901Z,47.70
2022-08-05T18:10:59.643Z,47.80
2022-08-05T18:13:27.564Z,47.70
2022-08-05T18:16:05.099Z,47.60
2022-08-05T18:18:33.644Z,47.60
2022-08-05T18:21:13.287Z,47.70
2022-08-05T18:23:49.005Z,47.70
2022-08-05T18:26:27.512Z,47.60
2022-08-05T18:28:57.347Z,47.80
2022-08-05T18:31:25.136Z,47.80
2022-08-05T18:33:53.721Z,47.80
2022-08-05T18:36:27.833Z,47.80
2022-08-05T18:38:55.894Z,47.90
2022-08-05T18:41:55.343Z,47.90
2022-08-05T18:44:12.982Z,47.90
2022-08-05T18:46:43.066Z,48.00
2022-08-05T18:49:30.735Z,48.10
2022-08-05T18:52:35.938Z,48.20
2022-08-05T18:55:06.171Z,48.20
2022-08-05T18:57:49.987Z,40.80
2022-08-05T19:00:27.212Z,42.50
2022-08-05T19:02:57.773Z,42.70
2022-08-05T19:06:11.397Z,42.50
2022-08-05T19:08:21.610Z,44.20
2022-08-05T19:10:49.832Z,43.80
2022-08-05T19:13:19.873Z,44.40
2022-08-05T19:15:59.533Z,45.10
2022-08-05T19:18:31.651Z,46.30
2022-08-05T19:21:00.269Z,47.60
2022-08-05T19:24:06.150Z,48.20
2022-08-05T19:26:19.418Z,47.20
2022-08-05T19:28:48.756Z,47.20
2022-08-05T19:31:19.526Z,49.90
2022-08-05T19:33:56.292Z,48.50
2022-08-05T19:36:25.261Z,47.70
2022-08-05T19:38:54.335Z,49.40
2022-08-05T19:42:05.564Z,49.60
2022-08-05T19:44:13.632Z,50.80
2022-08-05T19:46:43.776Z,51.60
2022-08-05T19:49:12.496Z,51.00
2022-08-05T19:52:08.853Z,50.40
2022-08-05T19:54:32.890Z,51.60
2022-08-05T19:57:06.520Z,51.90
2022-08-05T19:59:55.411Z,53.20
2022-08-05T20:02:30.450Z,52.80
2022-08-05T20:04:59.958Z,52.40
2022-08-05T20:07:47.028Z,53.60
2022-08-05T20:10:16.361Z,52.70
2022-08-05T20:12:47.532Z,53.30
2022-08-05T20:15:48.851Z,53.60
2022-08-05T20:18:10.738Z,54.10
2022-08-05T20:20:55.253Z,53.90
2022-08-05T20:23:42.285Z,53.90
2022-08-05T20:26:15.879Z,53.50
2022-08-05T20:28:44.995Z,54.20
2022-08-05T20:31:14.056Z,54.50
2022-08-05T20:33:45.392Z,55.00
2022-08-05T20:36:14.177Z,54.90
2022-08-05T20:38:53.749Z,55.60
2022-08-05T20:41:26.811Z,54.90
2022-08-05T20:43:58.925Z,54.70
2022-08-05T20:46:30.222Z,54.50
2022-08-05T20:48:58.216Z,55.00
2022-08-05T20:51:26.521Z,54.30
2022-08-05T20:53:57.100Z,53.60
2022-08-05T20:56:40.108Z,53.60
2022-08-05T20:59:18.893Z,51.90
2022-08-05T21:01:57.901Z,52.30
2022-08-05T21:04:26.686Z,52.60
2022-08-05T21:06:55.842Z,52.50
2022-08-05T21:09:23.884Z,52.20
2022-08-05T21:12:10.286Z,52.30
2022-08-05T21:14:39.686Z,52.60
2022-08-05T21:17:09.129Z,53.10
2022-08-05T21:19:46.807Z,53.40
2022-08-05T21:22:17.747Z,54.30
2022-08-05T21:24:49.049Z,54.80
2022-08-05T21:27:20.697Z,55.80
2022-08-05T21:29:54.216Z,56.80
2022-08-05T21:32:27.048Z,57.50
2022-08-05T21:35:09.104Z,58.20
2022-08-05T21:37:43.711Z,58.40
2022-08-05T21:40:16.584Z,59.50
2022-08-05T21:42:45.768Z,59.80
2022-08-05T21:45:24.941Z,60.00
2022-08-05T21:48:06.452Z,59.50
2022-08-05T21:50:37.308Z,59.40
2022-08-05T21:53:16.287Z,59.30
2022-08-05T21:56:04.592Z,58.90
2022-08-05T21:58:32.451Z,57.90
2022-08-05T22:01:00.560Z,59.20
2022-08-05T22:03:51.835Z,59.70
2022-08-05T22:06:22.367Z,58.80
2022-08-05T22:08:52.144Z,58.70
2022-08-05T22:11:34.893Z,58.70
2022-08-05T22:14:32.486Z,60.20
2022-08-05T22:16:56.789Z,60.70
2022-08-05T22:20:00.080Z,61.20
2022-08-05T22:22:15.918Z,61.20
2022-08-05T22:25:01.382Z,60.60
2022-08-05T22:28:08.497Z,60.60
2022-08-05T22:30:35.950Z,61.30
2022-08-05T22:33:04.487Z,62.30
2022-08-05T22:35:48.586Z,62.50
2022-08-05T22:38:17.009Z,59.80
2022-08-05T22:40:49.782Z,61.90
2022-08-05T22:43:36.932Z,61.20
2022-08-05T22:46:13.140Z,60.70
2022-08-05T22:48:41.970Z,62.50
2022-08-05T22:51:15.936Z,64.50
2022-08-05T22:53:51.945Z,63.20
2022-08-05T22:56:30.420Z,63.50
2022-08-05T22:59:00.010Z,66.50
2022-08-05T23:01:50.817Z,67.80
2022-08-05T23:04:19.042Z,64.70
2022-08-05T23:06:48.306Z,60.00
2022-08-05T23:09:27.723Z,57.60
2022-08-05T23:12:04.143Z,55.50
2022-08-05T23:14:32.719Z,53.90
2022-08-05T23:17:23.903Z,52.90
2022-08-05T23:19:56.286Z,51.80
2022-08-05T23:22:27.691Z,50.80
2022-08-05T23:24:55.692Z,50.30
2022-08-05T23:27:24.105Z,49.90
2022-08-05T23:29:56.492Z,49.40
2022-08-05T23:32:24.600Z,48.90
2022-08-05T23:34:54.885Z,48.70
2022-08-05T23:37:22.588Z,48.50
2022-08-05T23:39:55.838Z,48.30
2022-08-05T23:42:29.567Z,48.00
2022-08-05T23:44:57.771Z,47.80
2022-08-05T23:47:25.560Z,47.70
2022-08-05T23:49:55.598Z,47.50
2022-08-05T23:52:29.244Z,47.30
2022-08-05T23:55:00.898Z,47.20
2022-08-05T23:57:29.192Z,47.00
